Terminal Aerodrome Forecast
Issued by NWS Melbourne, FL

Home | Current Version | Previous Version | Text Only | Print | Product List | Glossary On
Versions: 1 2 3 4 5 6 7 8 9 10 11 12 13 14 15 16 17
000
FTUS42 KMLB 020600 AAA
TAFMLB
TAF AMD
KMLB 020620Z 0206/0306 28005KT 6SM BR SCT002
      TEMPO 0206/0210 5SM BR BKN002
     FM021500 02005KT P6SM SCT120
     FM021800 05010KT P6SM SCT120 BKN250
     FM030000 05005KT P6SM FEW120 SCT250=

USA.gov is the U.S. government's official web portal to all federal, state and local government web resources and services.